createdAt,value
2023-02-25T00:00:19.482Z,69.51
2023-02-25T00:03:55.344Z,69.65
2023-02-25T00:07:23.042Z,69.51
2023-02-25T00:11:00.849Z,69.75
2023-02-25T00:14:28.888Z,69.49
2023-02-25T00:17:57.780Z,69.55
2023-02-25T00:21:25.002Z,69.82
2023-02-25T00:24:56.099Z,69.82
2023-02-25T00:28:23.353Z,69.81
2023-02-25T00:31:51.084Z,70.17
2023-02-25T00:35:20.332Z,70.12
2023-02-25T00:38:48.763Z,69.87
2023-02-25T00:42:21.111Z,70.04
2023-02-25T00:45:48.112Z,69.93
2023-02-25T00:49:23.918Z,69.70
2023-02-25T00:52:58.995Z,70.05
2023-02-25T00:56:27.394Z,70.04
2023-02-25T00:59:54.409Z,70.03
2023-02-25T01:03:21.158Z,70.17
2023-02-25T01:06:48.240Z,70.37
2023-02-25T01:10:17.216Z,70.48
2023-02-25T01:13:44.788Z,70.34
2023-02-25T01:17:11.860Z,70.36
2023-02-25T01:20:42.917Z,70.47
2023-02-25T01:24:12.876Z,70.56
2023-02-25T01:27:39.547Z,70.38
2023-02-25T01:31:08.662Z,70.48
2023-02-25T01:34:35.816Z,70.73
2023-02-25T01:38:02.517Z,70.63
2023-02-25T01:41:31.774Z,70.39
2023-02-25T01:45:33.006Z,70.54
2023-02-25T01:49:00.119Z,70.45
2023-02-25T01:52:32.699Z,70.70
2023-02-25T01:56:03.359Z,70.78
2023-02-25T01:59:32.141Z,70.59
2023-02-25T02:03:06.027Z,70.80
2023-02-25T02:06:38.601Z,70.96
2023-02-25T02:10:10.476Z,71.08
2023-02-25T02:13:43.370Z,71.04
2023-02-25T02:17:20.253Z,71.24
2023-02-25T02:21:00.492Z,71.16
2023-02-25T02:24:57.235Z,71.32
2023-02-25T02:28:39.691Z,71.44
2023-02-25T02:32:24.854Z,71.17
2023-02-25T02:36:02.949Z,71.40
2023-02-25T02:39:47.613Z,71.19
2023-02-25T02:43:32.830Z,71.22
2023-02-25T02:47:07.291Z,71.33
2023-02-25T02:50:39.789Z,71.45
2023-02-25T02:54:10.036Z,71.63
2023-02-25T02:57:41.571Z,71.23
2023-02-25T03:01:13.555Z,71.52
2023-02-25T03:04:44.011Z,71.68
2023-02-25T03:08:16.377Z,71.85
2023-02-25T03:11:47.346Z,71.80
2023-02-25T03:15:15.932Z,71.91
2023-02-25T03:18:46.259Z,71.64
2023-02-25T03:22:17.388Z,72.10
2023-02-25T03:25:48.993Z,72.04
2023-02-25T03:29:24.054Z,71.93
2023-02-25T03:32:55.198Z,71.90
2023-02-25T03:36:26.489Z,71.96
2023-02-25T03:40:04.502Z,72.13
2023-02-25T03:43:35.242Z,72.06
2023-02-25T03:47:04.671Z,72.36
2023-02-25T03:50:37.236Z,72.05
2023-02-25T03:54:04.142Z,72.16
2023-02-25T03:57:42.240Z,72.25
2023-02-25T04:01:15.668Z,72.46
2023-02-25T04:04:43.790Z,72.29
2023-02-25T04:08:16.460Z,72.14
2023-02-25T04:11:45.549Z,72.61
2023-02-25T04:15:15.708Z,72.29
2023-02-25T04:18:42.849Z,72.64
2023-02-25T04:22:10.038Z,72.60
2023-02-25T04:25:38.023Z,72.88
2023-02-25T04:29:05.797Z,72.49
2023-02-25T04:32:33.086Z,72.93
2023-02-25T04:36:01.930Z,73.18
2023-02-25T04:39:28.822Z,73.03
2023-02-25T04:42:56.798Z,73.25
2023-02-25T04:46:24.241Z,73.11
2023-02-25T04:49:51.310Z,73.29
2023-02-25T04:53:17.520Z,73.52
2023-02-25T04:56:44.692Z,73.25
2023-02-25T05:00:20.063Z,73.46
2023-02-25T05:03:46.672Z,73.03
2023-02-25T05:07:13.676Z,73.01
2023-02-25T05:10:40.263Z,73.20
2023-02-25T05:14:07.057Z,73.11
2023-02-25T05:17:34.200Z,72.82
2023-02-25T05:21:01.299Z,73.18
2023-02-25T05:24:28.499Z,73.56
2023-02-25T05:27:55.579Z,73.30
2023-02-25T05:31:23.871Z,73.53
2023-02-25T05:34:50.593Z,73.47
2023-02-25T05:38:17.057Z,73.57
2023-02-25T05:41:43.754Z,73.81
2023-02-25T05:45:12.676Z,73.78
2023-02-25T05:48:39.853Z,73.67
2023-02-25T05:52:06.223Z,73.74
2023-02-25T05:55:32.814Z,73.80
2023-02-25T05:58:59.773Z,73.83
2023-02-25T06:02:26.400Z,73.75
2023-02-25T06:05:54.167Z,74.12
2023-02-25T06:09:22.024Z,73.85
2023-02-25T06:12:49.286Z,74.13
2023-02-25T06:16:16.357Z,74.26
2023-02-25T06:19:42.876Z,74.36
2023-02-25T06:23:09.853Z,73.92
2023-02-25T06:26:45.683Z,74.01
2023-02-25T06:30:14.802Z,73.98
2023-02-25T06:33:41.463Z,73.97
2023-02-25T06:37:08.711Z,74.08
2023-02-25T06:40:35.562Z,73.91
2023-02-25T06:44:04.486Z,74.14
2023-02-25T06:47:30.900Z,74.34
2023-02-25T06:50:57.744Z,74.44
2023-02-25T06:54:24.666Z,74.45
2023-02-25T06:57:51.175Z,74.25
2023-02-25T07:01:18.772Z,74.12
2023-02-25T07:04:45.588Z,74.38
2023-02-25T07:08:12.498Z,74.53
2023-02-25T07:11:39.170Z,74.18
2023-02-25T07:15:07.206Z,74.65
2023-02-25T07:18:33.685Z,74.79
2023-02-25T07:22:00.211Z,74.47
2023-02-25T07:25:27.812Z,74.45
2023-02-25T07:28:54.942Z,74.49
2023-02-25T07:32:21.693Z,74.75
2023-02-25T07:35:48.949Z,74.81
2023-02-25T07:39:16.279Z,74.73
2023-02-25T07:42:45.471Z,74.56
2023-02-25T07:46:14.030Z,74.47
2023-02-25T07:49:41.484Z,74.50
2023-02-25T07:53:08.495Z,74.35
2023-02-25T07:56:35.239Z,74.32
2023-02-25T08:00:01.723Z,74.53
2023-02-25T08:03:28.125Z,74.18
2023-02-25T08:06:55.581Z,74.35
2023-02-25T08:10:22.617Z,74.45
2023-02-25T08:13:50.684Z,74.29
2023-02-25T08:17:18.897Z,74.24
2023-02-25T08:20:49.946Z,74.38
2023-02-25T08:24:16.524Z,74.47
2023-02-25T08:27:44.425Z,74.56
2023-02-25T08:31:13.489Z,74.73
2023-02-25T08:34:40.381Z,74.56
2023-02-25T08:38:07.517Z,74.32
2023-02-25T08:41:34.366Z,74.33
2023-02-25T08:45:01.867Z,74.26
2023-02-25T08:48:29.296Z,74.13
2023-02-25T08:51:56.042Z,74.14
2023-02-25T08:55:25.272Z,74.40
2023-02-25T08:58:52.587Z,74.18
2023-02-25T09:02:22.938Z,74.27
2023-02-25T09:05:55.836Z,74.09
2023-02-25T09:09:23.343Z,74.13
2023-02-25T09:12:50.014Z,74.05
2023-02-25T09:16:17.832Z,74.07
2023-02-25T09:19:44.726Z,74.25
2023-02-25T09:23:12.144Z,74.04
2023-02-25T09:26:39.390Z,74.07
2023-02-25T09:30:06.816Z,74.08
2023-02-25T09:33:36.845Z,74.00
2023-02-25T09:37:04.793Z,73.84
2023-02-25T09:40:32.353Z,74.19
2023-02-25T09:44:08.763Z,74.04
2023-02-25T09:47:43.517Z,74.21
2023-02-25T09:51:20.375Z,74.17
2023-02-25T09:54:49.536Z,73.97
2023-02-25T09:58:32.619Z,74.21
2023-02-25T10:02:05.190Z,74.07
2023-02-25T10:05:44.564Z,73.75
2023-02-25T10:09:23.286Z,73.95
2023-02-25T10:13:03.915Z,73.66
2023-02-25T10:16:44.655Z,73.97
2023-02-25T10:20:35.357Z,73.83
2023-02-25T10:24:22.153Z,74.12
2023-02-25T10:27:53.614Z,74.09
2023-02-25T10:31:23.095Z,74.10
2023-02-25T10:34:51.968Z,74.15
2023-02-25T10:38:28.123Z,73.93
2023-02-25T10:41:55.507Z,74.18
2023-02-25T10:45:27.526Z,74.10
2023-02-25T10:49:00.170Z,74.07
2023-02-25T10:52:27.418Z,74.02
2023-02-25T10:55:55.126Z,74.04
2023-02-25T10:59:31.713Z,74.19
2023-02-25T11:03:00.223Z,74.12
2023-02-25T11:06:30.878Z,73.96
2023-02-25T11:10:16.334Z,73.86
2023-02-25T11:13:43.342Z,74.26
2023-02-25T11:17:17.530Z,73.98
2023-02-25T11:20:53.351Z,74.20
2023-02-25T11:24:24.534Z,74.20
2023-02-25T11:27:58.943Z,74.06
2023-02-25T11:31:30.846Z,74.27
2023-02-25T11:35:05.203Z,74.41
2023-02-25T11:38:36.915Z,74.56
2023-02-25T11:42:24.426Z,74.49
2023-02-25T11:46:04.375Z,74.60
2023-02-25T11:49:57.354Z,74.48
2023-02-25T11:53:38.921Z,74.26
2023-02-25T11:57:13.861Z,74.29
2023-02-25T12:00:52.388Z,74.38
2023-02-25T12:04:42.294Z,74.02
2023-02-25T12:08:33.958Z,73.98
2023-02-25T12:12:31.178Z,74.09
2023-02-25T12:16:20.024Z,74.23
2023-02-25T12:20:31.417Z,74.07
2023-02-25T12:24:34.123Z,74.06
2023-02-25T12:28:34.610Z,74.18
2023-02-25T12:32:20.242Z,74.40
2023-02-25T12:36:04.192Z,74.45
2023-02-25T12:39:57.901Z,74.47
2023-02-25T12:43:38.696Z,74.51
2023-02-25T12:47:25.487Z,74.35
2023-02-25T12:51:10.843Z,74.32
2023-02-25T12:55:06.092Z,74.15
2023-02-25T12:58:45.403Z,74.03
2023-02-25T13:02:36.484Z,74.17
2023-02-25T13:06:45.462Z,74.28
2023-02-25T13:10:39.560Z,74.15
2023-02-25T13:14:32.273Z,74.31
2023-02-25T13:18:17.998Z,74.03
2023-02-25T13:22:04.637Z,73.90
2023-02-25T13:25:51.251Z,74.11
2023-02-25T13:29:31.831Z,74.21
2023-02-25T13:33:12.590Z,74.18
2023-02-25T13:36:53.219Z,74.24
2023-02-25T13:40:45.611Z,74.29
2023-02-25T13:44:39.701Z,74.32
2023-02-25T13:48:35.418Z,74.16
2023-02-25T13:52:27.988Z,74.00
2023-02-25T13:56:24.773Z,73.96
2023-02-25T14:00:31.366Z,74.05
2023-02-25T14:04:24.256Z,73.99
2023-02-25T14:08:02.862Z,73.94
2023-02-25T14:11:43.749Z,74.15
2023-02-25T14:15:40.344Z,73.88
2023-02-25T14:19:23.986Z,73.78
2023-02-25T14:22:54.701Z,73.84
2023-02-25T14:26:34.961Z,73.64
2023-02-25T14:30:20.186Z,73.63
2023-02-25T14:34:19.228Z,73.77
2023-02-25T14:37:58.643Z,73.59
2023-02-25T14:41:38.099Z,73.67
2023-02-25T14:45:16.912Z,73.56
2023-02-25T14:48:51.185Z,73.58
2023-02-25T14:52:43.473Z,73.63
2023-02-25T14:56:34.793Z,73.53
2023-02-25T15:00:26.628Z,73.60
2023-02-25T15:04:18.409Z,73.79
2023-02-25T15:08:12.988Z,73.53
2023-02-25T15:12:02.324Z,73.62
2023-02-25T15:15:59.852Z,73.68
2023-02-25T15:19:47.191Z,73.56
2023-02-25T15:23:16.755Z,73.73
2023-02-25T15:26:48.831Z,73.51
2023-02-25T15:30:18.670Z,73.67
2023-02-25T15:33:47.625Z,73.65
2023-02-25T15:37:33.755Z,73.40
2023-02-25T15:41:02.849Z,73.36
2023-02-25T15:44:44.188Z,73.23
2023-02-25T15:48:36.636Z,73.09
2023-02-25T15:52:05.298Z,73.07
2023-02-25T15:55:41.835Z,73.18
2023-02-25T15:59:09.167Z,73.36
2023-02-25T16:02:46.856Z,73.26
2023-02-25T16:06:24.017Z,73.37
2023-02-25T16:09:55.487Z,73.25
2023-02-25T16:13:30.900Z,73.34
2023-02-25T16:17:01.235Z,73.35
2023-02-25T16:20:35.168Z,73.15
2023-02-25T16:24:02.865Z,73.11
2023-02-25T16:27:55.902Z,73.15
2023-02-25T16:31:28.011Z,73.27
2023-02-25T16:35:02.942Z,73.32
2023-02-25T16:38:39.006Z,73.24
2023-02-25T16:42:09.895Z,73.40
2023-02-25T16:45:40.820Z,73.42
2023-02-25T16:49:12.943Z,73.20
2023-02-25T16:52:47.525Z,73.37
2023-02-25T16:56:20.394Z,73.39
2023-02-25T16:59:51.355Z,73.60
2023-02-25T17:03:18.992Z,73.43
2023-02-25T17:07:06.259Z,73.51
2023-02-25T17:10:41.552Z,73.44
2023-02-25T17:14:09.367Z,73.43
2023-02-25T17:17:40.648Z,73.35
2023-02-25T17:21:10.833Z,73.38
2023-02-25T17:24:38.008Z,73.35
2023-02-25T17:28:06.159Z,73.48
2023-02-25T17:31:43.299Z,73.44
2023-02-25T17:35:13.617Z,73.36
2023-02-25T17:38:42.752Z,73.61
2023-02-25T17:42:39.291Z,73.46
2023-02-25T17:46:16.024Z,73.68
2023-02-25T17:49:44.288Z,73.55
2023-02-25T17:53:25.584Z,73.56
2023-02-25T17:56:59.350Z,73.22
2023-02-25T18:00:32.295Z,73.51
2023-02-25T18:04:06.958Z,73.38
2023-02-25T18:07:34.543Z,73.56
2023-02-25T18:11:27.313Z,73.66
2023-02-25T18:14:59.368Z,73.59
2023-02-25T18:18:26.424Z,73.56
2023-02-25T18:21:55.499Z,73.62
2023-02-25T18:25:35.084Z,73.70
2023-02-25T18:29:03.050Z,73.43
2023-02-25T18:32:31.558Z,73.40
2023-02-25T18:35:59.748Z,73.24
2023-02-25T18:39:28.961Z,73.47
2023-02-25T18:42:56.006Z,73.30
2023-02-25T18:46:23.780Z,73.29
2023-02-25T18:49:51.036Z,73.23
2023-02-25T18:53:20.697Z,73.28
2023-02-25T18:56:47.704Z,73.28
2023-02-25T19:00:18.467Z,73.33
2023-02-25T19:03:46.298Z,73.33
2023-02-25T19:07:14.196Z,73.33
2023-02-25T19:10:41.604Z,73.26
2023-02-25T19:14:09.434Z,73.12
2023-02-25T19:17:36.135Z,73.07
2023-02-25T19:21:03.500Z,73.19
2023-02-25T19:24:30.537Z,73.13
2023-02-25T19:28:02.069Z,73.17
2023-02-25T19:31:38.526Z,73.13
2023-02-25T19:35:11.896Z,73.07
2023-02-25T19:38:38.891Z,73.11
2023-02-25T19:42:06.381Z,72.94
2023-02-25T19:45:35.263Z,72.85
2023-02-25T19:49:02.159Z,72.81
2023-02-25T19:52:30.952Z,72.73
2023-02-25T19:56:00.697Z,72.68
2023-02-25T19:59:31.144Z,72.66
2023-02-25T20:02:58.841Z,72.75
2023-02-25T20:06:26.631Z,72.52
2023-02-25T20:09:54.259Z,72.53
2023-02-25T20:13:21.054Z,72.54
2023-02-25T20:16:48.670Z,72.48
2023-02-25T20:20:17.585Z,72.53
2023-02-25T20:23:46.978Z,72.51
2023-02-25T20:27:15.570Z,72.56
2023-02-25T20:30:45.081Z,72.44
2023-02-25T20:34:18.231Z,72.52
2023-02-25T20:37:56.273Z,72.60
2023-02-25T20:41:25.462Z,72.57
2023-02-25T20:44:59.618Z,72.64
2023-02-25T20:48:32.959Z,72.72
2023-02-25T20:52:02.284Z,72.84
2023-02-25T20:55:30.947Z,72.98
2023-02-25T20:58:58.537Z,72.95
2023-02-25T21:02:27.851Z,72.97
2023-02-25T21:05:56.676Z,73.08
2023-02-25T21:09:25.217Z,72.97
2023-02-25T21:12:56.130Z,72.89
2023-02-25T21:16:25.939Z,72.99
2023-02-25T21:19:57.444Z,73.13
2023-02-25T21:23:28.760Z,73.11
2023-02-25T21:27:10.134Z,73.19
2023-02-25T21:30:37.578Z,73.05
2023-02-25T21:34:09.775Z,73.21
2023-02-25T21:37:39.512Z,73.24
2023-02-25T21:41:12.963Z,73.22
2023-02-25T21:44:40.310Z,73.19
2023-02-25T21:48:11.607Z,73.18
2023-02-25T21:51:42.922Z,73.28
2023-02-25T21:55:13.272Z,73.26
2023-02-25T21:58:43.313Z,73.31
2023-02-25T22:02:13.075Z,73.31
2023-02-25T22:05:48.563Z,73.25
2023-02-25T22:09:20.930Z,73.16
2023-02-25T22:12:49.022Z,73.25
2023-02-25T22:16:18.745Z,73.25
2023-02-25T22:19:47.144Z,72.99
2023-02-25T22:23:14.404Z,72.77
2023-02-25T22:26:41.441Z,72.92
2023-02-25T22:30:14.152Z,73.02
2023-02-25T22:33:42.585Z,72.93
2023-02-25T22:37:10.159Z,72.98
2023-02-25T22:40:41.690Z,73.03
2023-02-25T22:44:09.182Z,73.01
2023-02-25T22:47:37.527Z,72.98
2023-02-25T22:51:13.542Z,73.02
2023-02-25T22:54:41.280Z,72.90
2023-02-25T22:58:09.426Z,72.91
2023-02-25T23:01:39.206Z,72.85
2023-02-25T23:05:10.613Z,72.86
2023-02-25T23:08:39.472Z,72.83
2023-02-25T23:12:07.865Z,72.88
2023-02-25T23:15:36.726Z,72.93
2023-02-25T23:19:05.666Z,72.98
2023-02-25T23:22:35.087Z,72.94
2023-02-25T23:26:01.935Z,73.04
2023-02-25T23:29:29.792Z,72.97
2023-02-25T23:32:57.724Z,72.90
2023-02-25T23:36:24.885Z,72.96
2023-02-25T23:39:52.627Z,72.89
2023-02-25T23:43:20.356Z,72.94
2023-02-25T23:46:48.041Z,73.03
2023-02-25T23:50:17.967Z,72.99
2023-02-25T23:53:50.600Z,73.05
2023-02-25T23:57:18.849Z,72.99
